sensor_id;sensor_type;location;lat;lon;timestamp;temperature;humidity
19224;DHT22;9746;47.180;9.776;2023-05-10T08:40:21;13.90;99.90
19224;DHT22;9746;47.180;9.776;2023-05-10T08:42:54;14.10;99.90
19224;DHT22;9746;47.180;9.776;2023-05-10T08:45:32;14.10;99.90
19224;DHT22;9746;47.180;9.776;2023-05-10T08:48:01;14.10;99.90
19224;DHT22;9746;47.180;9.776;2023-05-10T08:50:30;14.00;99.90
19224;DHT22;9746;47.180;9.776;2023-05-10T08:53:00;13.80;99.90
19224;DHT22;9746;47.180;9.776;2023-05-10T08:55:29;13.70;99.90
19224;DHT22;9746;47.180;9.776;2023-05-10T08:57:58;13.50;99.90
19224;DHT22;9746;47.180;9.776;2023-05-10T09:00:26;13.40;99.90
19224;DHT22;9746;47.180;9.776;2023-05-10T09:02:54;13.30;99.90
19224;DHT22;9746;47.180;9.776;2023-05-10T09:05:21;13.30;99.90
19224;DHT22;9746;47.180;9.776;2023-05-10T09:11:12;13.40;99.90
19224;DHT22;9746;47.180;9.776;2023-05-10T09:13:40;13.40;99.90
19224;DHT22;9746;47.180;9.776;2023-05-10T09:16:27;13.50;99.90
19224;DHT22;9746;47.180;9.776;2023-05-10T09:18:55;13.40;99.90
19224;DHT22;9746;47.180;9.776;2023-05-10T09:21:30;13.40;99.90
19224;DHT22;9746;47.180;9.776;2023-05-10T09:24:03;13.50;99.90
19224;DHT22;9746;47.180;9.776;2023-05-10T09:26:50;13.60;99.90
19224;DHT22;9746;47.180;9.776;2023-05-10T09:29:17;13.60;99.90
19224;DHT22;9746;47.180;9.776;2023-05-10T09:31:54;13.70;99.90
19224;DHT22;9746;47.180;9.776;2023-05-10T09:34:29;13.80;99.90
19224;DHT22;9746;47.180;9.776;2023-05-10T09:37:00;13.70;99.90
19224;DHT22;9746;47.180;9.776;2023-05-10T09:39:32;13.70;99.90
19224;DHT22;9746;47.180;9.776;2023-05-10T09:42:11;13.60;99.90
19224;DHT22;9746;47.180;9.776;2023-05-10T09:44:38;13.60;99.90
19224;DHT22;9746;47.180;9.776;2023-05-10T09:50:10;13.90;99.90
19224;DHT22;9746;47.180;9.776;2023-05-10T09:52:50;14.00;99.90
19224;DHT22;9746;47.180;9.776;2023-05-10T09:55:20;14.10;99.90
19224;DHT22;9746;47.180;9.776;2023-05-10T10:00:53;14.20;99.90
19224;DHT22;9746;47.180;9.776;2023-05-10T10:03:21;14.30;99.90
19224;DHT22;9746;47.180;9.776;2023-05-10T10:05:53;14.40;99.90
19224;DHT22;9746;47.180;9.776;2023-05-10T10:08:22;14.60;99.90
19224;DHT22;9746;47.180;9.776;2023-05-10T10:10:49;14.70;99.90
19224;DHT22;9746;47.180;9.776;2023-05-10T10:13:33;14.80;99.90
19224;DHT22;9746;47.180;9.776;2023-05-10T10:16:04;15.00;99.90
19224;DHT22;9746;47.180;9.776;2023-05-10T10:18:33;15.10;99.90
19224;DHT22;9746;47.180;9.776;2023-05-10T10:24:22;15.40;99.90
19224;DHT22;9746;47.180;9.776;2023-05-10T10:27:10;15.40;99.90
19224;DHT22;9746;47.180;9.776;2023-05-10T10:29:49;15.50;99.90
19224;DHT22;9746;47.180;9.776;2023-05-10T10:32:38;15.40;99.90
19224;DHT22;9746;47.180;9.776;2023-05-10T10:35:09;15.40;99.90
19224;DHT22;9746;47.180;9.776;2023-05-10T10:37:51;15.40;99.90
19224;DHT22;9746;47.180;9.776;2023-05-10T10:40:28;15.60;99.90
19224;DHT22;9746;47.180;9.776;2023-05-10T10:43:20;15.70;99.90
19224;DHT22;9746;47.180;9.776;2023-05-10T10:46:10;15.80;99.90
19224;DHT22;9746;47.180;9.776;2023-05-10T10:48:40;15.80;99.90
19224;DHT22;9746;47.180;9.776;2023-05-10T10:51:13;15.80;99.90
19224;DHT22;9746;47.180;9.776;2023-05-10T10:53:41;15.90;99.90
19224;DHT22;9746;47.180;9.776;2023-05-10T10:56:11;15.90;99.90
19224;DHT22;9746;47.180;9.776;2023-05-10T10:58:42;15.90;99.90
19224;DHT22;9746;47.180;9.776;2023-05-10T11:01:18;15.90;99.90
19224;DHT22;9746;47.180;9.776;2023-05-10T11:04:20;15.90;99.90
19224;DHT22;9746;47.180;9.776;2023-05-10T11:06:47;15.90;99.90
19224;DHT22;9746;47.180;9.776;2023-05-10T11:09:14;15.80;99.90
19224;DHT22;9746;47.180;9.776;2023-05-10T11:11:52;15.80;99.90
19224;DHT22;9746;47.180;9.776;2023-05-10T11:14:21;15.70;99.90
19224;DHT22;9746;47.180;9.776;2023-05-10T11:16:50;15.70;99.90
19224;DHT22;9746;47.180;9.776;2023-05-10T11:19:19;15.70;99.90
19224;DHT22;9746;47.180;9.776;2023-05-10T11:21:51;15.70;99.90
19224;DHT22;9746;47.180;9.776;2023-05-10T11:24:39;15.70;99.90
19224;DHT22;9746;47.180;9.776;2023-05-10T11:27:22;15.70;99.90
19224;DHT22;9746;47.180;9.776;2023-05-10T11:29:54;15.60;99.90
19224;DHT22;9746;47.180;9.776;2023-05-10T11:32:24;15.60;99.90
19224;DHT22;9746;47.180;9.776;2023-05-10T11:34:53;15.60;99.90
19224;DHT22;9746;47.180;9.776;2023-05-10T11:37:23;15.50;99.90
19224;DHT22;9746;47.180;9.776;2023-05-10T11:39:51;15.60;99.90
19224;DHT22;9746;47.180;9.776;2023-05-10T11:42:26;15.60;99.90
19224;DHT22;9746;47.180;9.776;2023-05-10T11:44:56;15.70;99.90
19224;DHT22;9746;47.180;9.776;2023-05-10T11:47:24;15.80;99.90
19224;DHT22;9746;47.180;9.776;2023-05-10T11:49:52;15.80;99.90
19224;DHT22;9746;47.180;9.776;2023-05-10T11:52:29;15.80;99.90
19224;DHT22;9746;47.180;9.776;2023-05-10T11:54:59;15.80;99.90
19224;DHT22;9746;47.180;9.776;2023-05-10T11:57:29;15.70;99.90
19224;DHT22;9746;47.180;9.776;2023-05-10T11:59:57;15.70;99.90
19224;DHT22;9746;47.180;9.776;2023-05-10T12:02:25;15.50;99.90
19224;DHT22;9746;47.180;9.776;2023-05-10T12:04:56;15.60;99.90
19224;DHT22;9746;47.180;9.776;2023-05-10T12:07:23;15.60;99.90
19224;DHT22;9746;47.180;9.776;2023-05-10T12:10:07;15.70;99.90
19224;DHT22;9746;47.180;9.776;2023-05-10T12:12:38;15.70;99.90
19224;DHT22;9746;47.180;9.776;2023-05-10T12:15:07;15.70;99.90
19224;DHT22;9746;47.180;9.776;2023-05-10T12:17:39;15.80;99.90
19224;DHT22;9746;47.180;9.776;2023-05-10T12:20:16;15.80;99.90
19224;DHT22;9746;47.180;9.776;2023-05-10T12:22:55;15.80;99.90
19224;DHT22;9746;47.180;9.776;2023-05-10T12:25:31;15.80;99.90
19224;DHT22;9746;47.180;9.776;2023-05-10T12:28:00;15.80;99.90
19224;DHT22;9746;47.180;9.776;2023-05-10T12:30:28;15.80;99.90
19224;DHT22;9746;47.180;9.776;2023-05-10T12:33:10;15.80;99.90
19224;DHT22;9746;47.180;9.776;2023-05-10T12:35:47;15.80;99.90
19224;DHT22;9746;47.180;9.776;2023-05-10T12:38:26;15.80;99.90
19224;DHT22;9746;47.180;9.776;2023-05-10T12:40:56;15.80;99.90
19224;DHT22;9746;47.180;9.776;2023-05-10T12:43:31;15.80;99.90
19224;DHT22;9746;47.180;9.776;2023-05-10T12:46:04;15.80;99.90
19224;DHT22;9746;47.180;9.776;2023-05-10T12:48:32;15.80;99.90
19224;DHT22;9746;47.180;9.776;2023-05-10T12:51:02;15.90;99.90
19224;DHT22;9746;47.180;9.776;2023-05-10T12:53:31;15.90;99.90
19224;DHT22;9746;47.180;9.776;2023-05-10T12:55:58;15.90;99.90
19224;DHT22;9746;47.180;9.776;2023-05-10T12:58:26;15.90;99.90
19224;DHT22;9746;47.180;9.776;2023-05-10T13:00:54;15.90;99.90
19224;DHT22;9746;47.180;9.776;2023-05-10T13:03:33;15.90;99.90
19224;DHT22;9746;47.180;9.776;2023-05-10T13:06:05;15.90;99.90
19224;DHT22;9746;47.180;9.776;2023-05-10T13:08:42;15.90;99.90
19224;DHT22;9746;47.180;9.776;2023-05-10T13:11:10;15.90;99.90
19224;DHT22;9746;47.180;9.776;2023-05-10T13:13:42;15.90;99.90
19224;DHT22;9746;47.180;9.776;2023-05-10T13:16:09;15.90;99.90
19224;DHT22;9746;47.180;9.776;2023-05-10T13:18:39;15.80;99.90
19224;DHT22;9746;47.180;9.776;2023-05-10T13:21:08;15.80;99.90
19224;DHT22;9746;47.180;9.776;2023-05-10T13:23:45;15.80;99.90
19224;DHT22;9746;47.180;9.776;2023-05-10T13:26:13;15.80;99.90
19224;DHT22;9746;47.180;9.776;2023-05-10T13:28:40;15.70;99.90
19224;DHT22;9746;47.180;9.776;2023-05-10T13:31:09;15.70;99.90
19224;DHT22;9746;47.180;9.776;2023-05-10T13:33:41;15.60;99.90
19224;DHT22;9746;47.180;9.776;2023-05-10T13:36:14;15.50;99.90
19224;DHT22;9746;47.180;9.776;2023-05-10T13:38:41;15.30;99.90
19224;DHT22;9746;47.180;9.776;2023-05-10T13:41:13;15.20;99.90
19224;DHT22;9746;47.180;9.776;2023-05-10T13:43:44;15.10;99.90
19224;DHT22;9746;47.180;9.776;2023-05-10T13:46:11;15.20;99.90
19224;DHT22;9746;47.180;9.776;2023-05-10T13:48:40;15.20;99.90
19224;DHT22;9746;47.180;9.776;2023-05-10T13:51:07;15.10;99.90
19224;DHT22;9746;47.180;9.776;2023-05-10T13:53:54;15.20;99.90
19224;DHT22;9746;47.180;9.776;2023-05-10T13:56:23;15.10;99.90
19224;DHT22;9746;47.180;9.776;2023-05-10T13:59:12;14.90;99.90
19224;DHT22;9746;47.180;9.776;2023-05-10T14:01:40;14.90;99.90
19224;DHT22;9746;47.180;9.776;2023-05-10T14:04:27;14.80;99.90
19224;DHT22;9746;47.180;9.776;2023-05-10T14:06:54;14.70;99.90
19224;DHT22;9746;47.180;9.776;2023-05-10T14:09:33;14.60;99.90
19224;DHT22;9746;47.180;9.776;2023-05-10T14:12:01;14.50;99.90
19224;DHT22;9746;47.180;9.776;2023-05-10T14:14:28;14.40;99.90
19224;DHT22;9746;47.180;9.776;2023-05-10T14:16:56;14.30;99.90
19224;DHT22;9746;47.180;9.776;2023-05-10T14:19:38;14.30;99.90
19224;DHT22;9746;47.180;9.776;2023-05-10T14:22:06;14.10;99.90
19224;DHT22;9746;47.180;9.776;2023-05-10T14:24:53;14.10;99.90
19224;DHT22;9746;47.180;9.776;2023-05-10T14:27:21;14.10;99.90
19224;DHT22;9746;47.180;9.776;2023-05-10T14:30:03;14.00;99.90
19224;DHT22;9746;47.180;9.776;2023-05-10T14:32:30;13.90;99.90
19224;DHT22;9746;47.180;9.776;2023-05-10T14:35:15;13.90;99.90
19224;DHT22;9746;47.180;9.776;2023-05-10T14:37:54;14.00;99.90
19224;DHT22;9746;47.180;9.776;2023-05-10T14:40:23;13.80;99.90
19224;DHT22;9746;47.180;9.776;2023-05-10T14:42:50;13.80;99.90
19224;DHT22;9746;47.180;9.776;2023-05-10T14:45:18;13.80;99.90
19224;DHT22;9746;47.180;9.776;2023-05-10T14:47:46;13.70;99.90
19224;DHT22;9746;47.180;9.776;2023-05-10T14:50:14;13.70;99.90
19224;DHT22;9746;47.180;9.776;2023-05-10T14:52:42;13.70;99.90
19224;DHT22;9746;47.180;9.776;2023-05-10T14:58:33;13.70;99.90
19224;DHT22;9746;47.180;9.776;2023-05-10T15:01:01;13.50;99.90
19224;DHT22;9746;47.180;9.776;2023-05-10T15:04:04;13.40;99.90
19224;DHT22;9746;47.180;9.776;2023-05-10T15:06:32;13.40;99.90
19224;DHT22;9746;47.180;9.776;2023-05-10T15:09:17;13.40;99.90
19224;DHT22;9746;47.180;9.776;2023-05-10T15:11:45;13.50;99.90
19224;DHT22;9746;47.180;9.776;2023-05-10T15:14:32;13.50;99.90
19224;DHT22;9746;47.180;9.776;2023-05-10T15:17:02;13.50;99.90
19224;DHT22;9746;47.180;9.776;2023-05-10T15:19:45;13.50;99.90
19224;DHT22;9746;47.180;9.776;2023-05-10T15:22:14;13.50;99.90
19224;DHT22;9746;47.180;9.776;2023-05-10T15:25:05;13.40;99.90
19224;DHT22;9746;47.180;9.776;2023-05-10T15:27:33;13.40;99.90
19224;DHT22;9746;47.180;9.776;2023-05-10T15:33:23;13.40;99.90
19224;DHT22;9746;47.180;9.776;2023-05-10T15:35:50;13.30;99.90
19224;DHT22;9746;47.180;9.776;2023-05-10T15:38:24;13.30;99.90
19224;DHT22;9746;47.180;9.776;2023-05-10T15:40:51;13.30;99.90
19224;DHT22;9746;47.180;9.776;2023-05-10T15:43:22;13.20;99.90
19224;DHT22;9746;47.180;9.776;2023-05-10T15:45:49;13.20;99.90
19224;DHT22;9746;47.180;9.776;2023-05-10T15:48:16;13.20;99.90
19224;DHT22;9746;47.180;9.776;2023-05-10T15:50:45;13.20;99.90
19224;DHT22;9746;47.180;9.776;2023-05-10T15:53:13;13.20;99.90
19224;DHT22;9746;47.180;9.776;2023-05-10T15:55:40;13.10;99.90
19224;DHT22;9746;47.180;9.776;2023-05-10T15:58:07;13.00;99.90
19224;DHT22;9746;47.180;9.776;2023-05-10T16:03:56;13.00;99.90
19224;DHT22;9746;47.180;9.776;2023-05-10T16:06:25;13.00;99.90
19224;DHT22;9746;47.180;9.776;2023-05-10T16:09:00;13.00;99.90
19224;DHT22;9746;47.180;9.776;2023-05-10T16:11:27;13.00;99.90
19224;DHT22;9746;47.180;9.776;2023-05-10T16:14:07;12.90;99.90
19224;DHT22;9746;47.180;9.776;2023-05-10T16:16:35;12.90;99.90
19224;DHT22;9746;47.180;9.776;2023-05-10T16:19:11;12.80;99.90
19224;DHT22;9746;47.180;9.776;2023-05-10T16:21:46;12.90;99.90
19224;DHT22;9746;47.180;9.776;2023-05-10T16:27:32;12.80;99.90
19224;DHT22;9746;47.180;9.776;2023-05-10T16:33:00;12.70;99.90
19224;DHT22;9746;47.180;9.776;2023-05-10T16:35:44;12.70;99.90
19224;DHT22;9746;47.180;9.776;2023-05-10T16:38:13;12.60;99.90
19224;DHT22;9746;47.180;9.776;2023-05-10T16:41:05;12.60;99.90
19224;DHT22;9746;47.180;9.776;2023-05-10T16:43:35;12.60;99.90
19224;DHT22;9746;47.180;9.776;2023-05-10T16:46:11;12.60;99.90
19224;DHT22;9746;47.180;9.776;2023-05-10T16:48:41;12.50;99.90
19224;DHT22;9746;47.180;9.776;2023-05-10T16:51:09;12.50;99.90
19224;DHT22;9746;47.180;9.776;2023-05-10T16:53:41;12.50;99.90
19224;DHT22;9746;47.180;9.776;2023-05-10T16:56:09;12.50;99.90
19224;DHT22;9746;47.180;9.776;2023-05-10T16:58:36;12.50;99.90
19224;DHT22;9746;47.180;9.776;2023-05-10T17:01:18;12.40;99.90
19224;DHT22;9746;47.180;9.776;2023-05-10T17:03:53;12.40;99.90
19224;DHT22;9746;47.180;9.776;2023-05-10T17:06:20;12.40;99.90
19224;DHT22;9746;47.180;9.776;2023-05-10T17:08:52;12.30;99.90
19224;DHT22;9746;47.180;9.776;2023-05-10T17:11:21;12.20;99.90
19224;DHT22;9746;47.180;9.776;2023-05-10T17:13:50;12.10;99.90
19224;DHT22;9746;47.180;9.776;2023-05-10T17:16:18;12.10;99.90
19224;DHT22;9746;47.180;9.776;2023-05-10T17:18:45;11.90;99.90
19224;DHT22;9746;47.180;9.776;2023-05-10T17:21:14;11.90;99.90
19224;DHT22;9746;47.180;9.776;2023-05-10T17:23:42;11.90;99.90
19224;DHT22;9746;47.180;9.776;2023-05-10T17:29:37;11.80;99.90
19224;DHT22;9746;47.180;9.776;2023-05-10T17:32:06;11.60;99.90
19224;DHT22;9746;47.180;9.776;2023-05-10T17:34:53;11.50;99.90
19224;DHT22;9746;47.180;9.776;2023-05-10T17:37:20;11.40;99.90
19224;DHT22;9746;47.180;9.776;2023-05-10T17:40:02;11.40;99.90
19224;DHT22;9746;47.180;9.776;2023-05-10T17:42:30;11.50;99.90
19224;DHT22;9746;47.180;9.776;2023-05-10T17:48:10;11.50;99.90
19224;DHT22;9746;47.180;9.776;2023-05-10T17:50:44;11.50;99.90
19224;DHT22;9746;47.180;9.776;2023-05-10T17:53:11;11.50;99.90
19224;DHT22;9746;47.180;9.776;2023-05-10T17:55:58;11.40;99.90
19224;DHT22;9746;47.180;9.776;2023-05-10T17:58:27;11.40;99.90
19224;DHT22;9746;47.180;9.776;2023-05-10T18:01:13;11.40;99.90
19224;DHT22;9746;47.180;9.776;2023-05-10T18:03:51;11.40;99.90
19224;DHT22;9746;47.180;9.776;2023-05-10T18:06:26;11.20;99.90
19224;DHT22;9746;47.180;9.776;2023-05-10T18:08:54;10.90;99.90
19224;DHT22;9746;47.180;9.776;2023-05-10T18:11:23;10.80;99.90
19224;DHT22;9746;47.180;9.776;2023-05-10T18:14:06;10.70;99.90
19224;DHT22;9746;47.180;9.776;2023-05-10T18:16:40;10.60;99.90
19224;DHT22;9746;47.180;9.776;2023-05-10T18:19:10;10.40;99.90
19224;DHT22;9746;47.180;9.776;2023-05-10T18:21:37;10.20;99.90
19224;DHT22;9746;47.180;9.776;2023-05-10T18:24:05;10.10;99.90
19224;DHT22;9746;47.180;9.776;2023-05-10T18:26:57;10.10;99.90
19224;DHT22;9746;47.180;9.776;2023-05-10T18:29:42;10.20;99.90
19224;DHT22;9746;47.180;9.776;2023-05-10T18:32:09;10.20;99.90
19224;DHT22;9746;47.180;9.776;2023-05-10T18:34:45;10.20;99.90
19224;DHT22;9746;47.180;9.776;2023-05-10T18:37:13;10.30;99.90
19224;DHT22;9746;47.180;9.776;2023-05-10T18:39:59;10.20;99.90
19224;DHT22;9746;47.180;9.776;2023-05-10T18:42:26;10.10;99.90
19224;DHT22;9746;47.180;9.776;2023-05-10T18:45:05;10.10;99.90
19224;DHT22;9746;47.180;9.776;2023-05-10T18:47:32;10.10;99.90
19224;DHT22;9746;47.180;9.776;2023-05-10T18:50:19;10.10;99.90
19224;DHT22;9746;47.180;9.776;2023-05-10T18:52:47;10.10;99.90
19224;DHT22;9746;47.180;9.776;2023-05-10T18:55:23;10.20;99.90
19224;DHT22;9746;47.180;9.776;2023-05-10T18:57:51;10.10;99.90
19224;DHT22;9746;47.180;9.776;2023-05-10T19:00:27;10.10;99.90
19224;DHT22;9746;47.180;9.776;2023-05-10T19:02:55;10.00;99.90
19224;DHT22;9746;47.180;9.776;2023-05-10T19:06:00;10.00;99.90
19224;DHT22;9746;47.180;9.776;2023-05-10T19:08:49;10.00;99.90
19224;DHT22;9746;47.180;9.776;2023-05-10T19:11:18;9.90;99.90
19224;DHT22;9746;47.180;9.776;2023-05-10T19:14:02;9.90;99.90
19224;DHT22;9746;47.180;9.776;2023-05-10T19:16:30;9.90;99.90
19224;DHT22;9746;47.180;9.776;2023-05-10T19:19:08;9.90;99.90
19224;DHT22;9746;47.180;9.776;2023-05-10T19:21:45;9.90;99.90
19224;DHT22;9746;47.180;9.776;2023-05-10T19:24:34;10.00;99.90
19224;DHT22;9746;47.180;9.776;2023-05-10T19:27:02;10.00;99.90
19224;DHT22;9746;47.180;9.776;2023-05-10T19:29:33;10.10;99.90
19224;DHT22;9746;47.180;9.776;2023-05-10T19:32:00;10.10;99.90
19224;DHT22;9746;47.180;9.776;2023-05-10T19:34:35;10.20;99.90
19224;DHT22;9746;47.180;9.776;2023-05-10T19:37:04;10.20;99.90
19224;DHT22;9746;47.180;9.776;2023-05-10T19:39:32;10.10;99.90
19224;DHT22;9746;47.180;9.776;2023-05-10T19:42:04;10.10;99.90
19224;DHT22;9746;47.180;9.776;2023-05-10T19:44:33;10.10;99.90
19224;DHT22;9746;47.180;9.776;2023-05-10T19:47:01;10.10;99.90
19224;DHT22;9746;47.180;9.776;2023-05-10T19:49:36;10.00;99.90
19224;DHT22;9746;47.180;9.776;2023-05-10T19:52:05;9.90;99.90
19224;DHT22;9746;47.180;9.776;2023-05-10T19:54:41;10.00;99.90
19224;DHT22;9746;47.180;9.776;2023-05-10T19:57:09;9.90;99.90
19224;DHT22;9746;47.180;9.776;2023-05-10T19:59:46;9.80;99.90
